Time;durP1;ratioP1;P1;durP2;ratioP2;P2;SDS_P1;SDS_P2;PMS_P1;PMS_P2;Temp;Humidity;BMP_temperature;BMP_pressure;BME280_temperature;BME280_humidity;BME280_pressure;Samples;Min_cycle;Max_cycle;Signal;HPM_P1;HPM_P2
2024/01/31 00:02:12;;;;;;;0.28;0.28;;;14.50;99.90;;;;;;10466129;28;20056;-57
2024/01/31 00:07:14;;;;;;;0.50;0.50;;;14.30;99.90;;;;;;10469144;28;20051;-57
2024/01/31 00:12:18;;;;;;;0.00;0.00;;;14.40;99.90;;;;;;10465412;28;20139;-57
2024/01/31 00:17:20;;;;;;;0.10;0.10;;;14.40;99.90;;;;;;10453181;28;20146;-59
2024/01/31 00:22:22;;;;;;;0.10;0.10;;;14.40;99.90;;;;;;10473658;28;20060;-57
2024/01/31 00:27:26;;;;;;;0.00;0.00;;;14.40;99.90;;;;;;10466378;28;20169;-58
2024/01/31 00:32:28;;;;;;;0.00;0.00;;;14.50;99.90;;;;;;10477412;28;20522;-57
2024/01/31 00:37:29;;;;;;;0.17;0.17;;;14.50;99.90;;;;;;10471040;28;20759;-56
2024/01/31 00:42:33;;;;;;;0.03;0.03;;;14.40;99.90;;;;;;10473466;28;20049;-58
2024/01/31 00:47:35;;;;;;;0.20;0.20;;;14.40;99.90;;;;;;10488084;28;22963;-58
2024/01/31 00:52:37;;;;;;;0.00;0.00;;;14.40;99.90;;;;;;10476835;28;20061;-58
2024/01/31 00:57:40;;;;;;;0.00;0.00;;;14.30;99.90;;;;;;10476460;28;20076;-55
2024/01/31 01:02:44;;;;;;;0.52;0.40;;;14.40;99.90;;;;;;10471371;28;20129;-57
2024/01/31 01:07:46;;;;;;;0.90;0.75;;;14.50;99.90;;;;;;10486673;28;20427;-57
2024/01/31 01:12:49;;;;;;;0.10;0.10;;;14.30;99.90;;;;;;10474019;28;20087;-57
2024/01/31 01:17:51;;;;;;;0.10;0.10;;;14.30;99.90;;;;;;10470846;28;20059;-57
2024/01/31 01:22:55;;;;;;;0.00;0.00;;;14.30;99.90;;;;;;10472845;28;20068;-56
2024/01/31 01:27:58;;;;;;;0.00;0.00;;;14.40;99.90;;;;;;10481471;28;20048;-57
2024/01/31 01:33:00;;;;;;;0.00;0.00;;;13.50;99.90;;;;;;10468960;28;20044;-56
2024/01/31 01:38:02;;;;;;;0.10;0.10;;;13.60;99.90;;;;;;10479924;28;20044;-58
2024/01/31 01:43:15;;;;;;;2.20;1.00;;;13.40;99.90;;;;;;10475373;28;20051;-58
2024/01/31 01:48:17;;;;;;;0.88;0.75;;;13.50;99.90;;;;;;10479003;28;20552;-59
2024/01/31 01:53:19;;;;;;;0.00;0.00;;;12.40;99.90;;;;;;10477045;28;20040;-58
2024/01/31 01:58:23;;;;;;;0.10;0.10;;;13.00;99.90;;;;;;10483281;28;20056;-56
2024/01/31 02:03:25;;;;;;;0.10;0.10;;;13.30;99.90;;;;;;10474669;28;20096;-57
2024/01/31 02:08:28;;;;;;;0.00;0.00;;;13.90;99.90;;;;;;10482078;28;20681;-58
2024/01/31 02:13:31;;;;;;;;;;;13.90;99.90;;;;;;10478098;28;20059;-57
2024/01/31 02:18:33;;;;;;;0.10;0.10;;;14.10;99.90;;;;;;10480142;28;19927;-57
2024/01/31 02:23:36;;;;;;;0.00;0.00;;;14.20;99.90;;;;;;10477626;28;20044;-57
2024/01/31 02:28:38;;;;;;;0.10;0.10;;;14.30;99.90;;;;;;10478118;28;20111;-56
2024/01/31 02:33:40;;;;;;;0.00;0.00;;;14.30;99.90;;;;;;10475214;28;20122;-56
2024/01/31 02:38:44;;;;;;;2.63;1.50;;;14.30;99.90;;;;;;10477146;28;20235;-57
2024/01/31 02:43:48;;;;;;;0.10;0.10;;;14.40;99.90;;;;;;10477228;28;20629;-58
2024/01/31 02:48:50;;;;;;;0.10;0.10;;;14.30;99.90;;;;;;10470274;28;20428;-58
2024/01/31 02:53:53;;;;;;;0.00;0.00;;;14.40;99.90;;;;;;10478995;28;20761;-58
2024/01/31 02:58:55;;;;;;;0.10;0.10;;;14.40;99.90;;;;;;10477180;28;20320;-56
2024/01/31 03:03:57;;;;;;;0.10;0.10;;;14.50;99.90;;;;;;10483060;28;20052;-58
2024/01/31 03:09:00;;;;;;;0.17;0.17;;;14.50;99.90;;;;;;10477034;28;20045;-58
2024/01/31 03:14:02;;;;;;;0.10;0.10;;;14.40;99.90;;;;;;10480780;28;20125;-57
2024/01/31 03:19:04;;;;;;;0.10;0.10;;;14.40;99.90;;;;;;10472172;28;20770;-58
2024/01/31 03:24:10;;;;;;;0.00;0.00;;;14.50;99.90;;;;;;10476955;28;20700;-56
2024/01/31 03:29:12;;;;;;;0.10;0.10;;;14.20;99.90;;;;;;10472788;28;20245;-57
2024/01/31 03:34:14;;;;;;;0.10;0.10;;;14.30;99.90;;;;;;10470803;28;20064;-59
2024/01/31 03:39:18;;;;;;;0.10;0.10;;;14.20;99.90;;;;;;10480745;28;20594;-59
2024/01/31 03:44:21;;;;;;;0.10;0.10;;;14.30;99.90;;;;;;10463446;28;20517;-57
2024/01/31 03:49:23;;;;;;;2.80;0.80;;;14.20;99.90;;;;;;10473262;28;20055;-58
2024/01/31 03:54:26;;;;;;;0.00;0.00;;;14.40;99.90;;;;;;10467916;28;20045;-57
2024/01/31 04:15:31;;;;;;;0.00;0.00;;;13.90;99.90;;;;;;10535630;27;20721;-58
2024/01/31 04:20:33;;;;;;;0.08;0.08;;;14.10;99.90;;;;;;10555252;28;20063;-58
2024/01/31 04:25:35;;;;;;;0.33;0.33;;;13.80;99.90;;;;;;10559150;28;20050;-55
2024/01/31 04:30:39;;;;;;;0.10;0.10;;;14.10;99.90;;;;;;10551767;27;20083;-58
2024/01/31 04:35:41;;;;;;;0.20;0.20;;;13.10;99.90;;;;;;10552919;28;20351;-55
2024/01/31 04:40:43;;;;;;;0.00;0.00;;;13.40;99.90;;;;;;10556338;27;20086;-58
2024/01/31 04:45:46;;;;;;;0.00;0.00;;;13.80;99.90;;;;;;10550408;27;20071;-58
2024/01/31 04:50:49;;;;;;;0.10;0.10;;;14.10;99.90;;;;;;10549316;27;20067;-57
2024/01/31 04:55:51;;;;;;;0.10;0.10;;;14.10;99.90;;;;;;10556063;27;20088;-57
2024/01/31 05:00:55;;;;;;;0.00;0.00;;;13.20;99.90;;;;;;10557261;27;20043;-59
2024/01/31 05:05:57;;;;;;;0.08;0.08;;;13.90;99.90;;;;;;10548920;28;20486;-58
2024/01/31 05:10:59;;;;;;;0.00;0.00;;;14.20;99.90;;;;;;10554602;27;20870;-58
2024/01/31 05:16:02;;;;;;;0.10;0.10;;;13.70;99.90;;;;;;10550448;27;20082;-56
2024/01/31 05:21:05;;;;;;;0.10;0.10;;;13.00;99.90;;;;;;10551552;27;20055;-57
2024/01/31 05:26:08;;;;;;;0.10;0.10;;;13.60;99.90;;;;;;10526790;27;20109;-56
2024/01/31 05:31:12;;;;;;;0.10;0.10;;;13.60;99.90;;;;;;10520165;28;20141;-58
2024/01/31 05:36:14;;;;;;;0.10;0.10;;;13.90;99.90;;;;;;10529542;28;20055;-56
2024/01/31 05:41:16;;;;;;;0.00;0.00;;;14.30;99.90;;;;;;10526052;28;20040;-57
2024/01/31 05:46:19;;;;;;;0.10;0.10;;;14.70;99.90;;;;;;10525181;28;20047;-59
2024/01/31 05:51:21;;;;;;;0.10;0.10;;;13.90;99.90;;;;;;10522555;28;20075;-59
2024/01/31 05:56:23;;;;;;;0.00;0.00;;;14.10;99.90;;;;;;10516241;28;20419;-57
2024/01/31 06:01:27;;;;;;;0.20;0.20;;;13.30;99.90;;;;;;10517683;28;20051;-55
2024/01/31 06:06:29;;;;;;;0.10;0.10;;;12.10;99.90;;;;;;10508734;28;20063;-57
2024/01/31 06:11:31;;;;;;;1.02;1.02;;;12.20;99.90;;;;;;10522159;28;20052;-58
2024/01/31 06:16:35;;;;;;;0.10;0.10;;;11.40;99.90;;;;;;10518417;28;20052;-57
2024/01/31 06:21:37;;;;;;;0.10;0.10;;;11.90;99.90;;;;;;10518369;28;20044;-58
2024/01/31 06:26:42;;;;;;;0.10;0.10;;;11.30;99.90;;;;;;10522864;28;20054;-56
2024/01/31 06:31:47;;;;;;;0.10;0.10;;;11.20;99.90;;;;;;10508676;28;20052;-56
2024/01/31 06:36:49;;;;;;;0.10;0.10;;;11.60;99.90;;;;;;10514659;28;21021;-56
2024/01/31 06:41:54;;;;;;;0.10;0.10;;;10.30;99.90;;;;;;10512448;28;20157;-57
2024/01/31 06:46:57;;;;;;;0.20;0.20;;;10.30;99.90;;;;;;10507197;28;20040;-57
2024/01/31 06:52:00;;;;;;;0.35;0.35;;;10.30;99.90;;;;;;10511988;28;20888;-56
2024/01/31 06:57:02;;;;;;;0.50;0.50;;;11.60;99.90;;;;;;10511295;28;20055;-54
2024/01/31 07:02:06;;;;;;;0.00;0.00;;;12.80;99.90;;;;;;10514831;28;20048;-56
2024/01/31 07:07:08;;;;;;;0.10;0.10;;;13.30;99.90;;;;;;10508114;28;20044;-56
2024/01/31 07:12:10;;;;;;;0.00;0.00;;;13.40;99.90;;;;;;10514601;28;20056;-55
2024/01/31 07:17:14;;;;;;;0.00;0.00;;;14.00;99.90;;;;;;10513630;28;20547;-56
2024/01/31 07:22:16;;;;;;;0.00;0.00;;;14.30;99.90;;;;;;10512404;28;20093;-57
2024/01/31 07:27:18;;;;;;;0.00;0.00;;;14.20;99.90;;;;;;10520840;28;20055;-57
2024/01/31 07:32:21;;;;;;;0.00;0.00;;;13.20;99.90;;;;;;10518144;27;20158;-57
2024/01/31 07:37:23;;;;;;;5.68;2.20;;;13.70;99.90;;;;;;10505141;28;20048;-57
2024/01/31 07:42:26;;;;;;;7.13;2.53;;;14.40;99.90;;;;;;10513133;28;20056;-57
2024/01/31 07:47:30;;;;;;;;;;;14.20;99.90;;;;;;10512851;28;20869;-56
2024/01/31 07:52:32;;;;;;;6.60;3.08;;;14.30;99.90;;;;;;10511243;28;19930;-57
2024/01/31 07:57:34;;;;;;;5.50;2.27;;;13.20;99.90;;;;;;10502088;28;20075;-58
2024/01/31 08:02:37;;;;;;;7.00;2.20;;;13.00;99.90;;;;;;10508034;28;20056;-53
2024/01/31 08:07:43;;;;;;;6.38;2.80;;;12.60;99.90;;;;;;10500478;28;20060;-57
2024/01/31 08:12:46;;;;;;;4.72;2.70;;;12.70;99.90;;;;;;10513427;28;20139;-56
2024/01/31 08:17:50;;;;;;;7.38;3.03;;;11.30;99.90;;;;;;10510266;28;20063;-56
2024/01/31 08:22:52;;;;;;;6.28;3.88;;;10.20;99.90;;;;;;10513848;28;20051;-56
2024/01/31 08:27:54;;;;;;;12.73;6.85;;;11.90;99.90;;;;;;10511625;28;20138;-60
2024/01/31 08:32:57;;;;;;;19.58;5.78;;;11.10;99.90;;;;;;10510031;28;20051;-59
2024/01/31 08:37:59;;;;;;;11.68;5.40;;;11.50;99.90;;;;;;10508830;28;20523;-57
2024/01/31 08:43:01;;;;;;;10.53;6.40;;;12.80;99.90;;;;;;10503864;28;20044;-56
2024/01/31 08:48:06;;;;;;;12.00;5.50;;;12.70;99.90;;;;;;10514487;28;20477;-56
2024/01/31 08:53:09;;;;;;;18.45;7.55;;;13.50;99.90;;;;;;10511633;28;20060;-60
2024/01/31 08:58:11;;;;;;;15.98;6.80;;;13.90;99.90;;;;;;10515909;28;20410;-56
2024/01/31 09:03:14;;;;;;;16.20;8.48;;;13.40;99.90;;;;;;10518169;28;20116;-57
2024/01/31 09:08:17;;;;;;;14.25;6.78;;;13.60;99.90;;;;;;10517974;28;20052;-56
2024/01/31 09:13:19;;;;;;;10.40;5.55;;;14.50;99.90;;;;;;10510529;28;20098;-56
2024/01/31 09:18:23;;;;;;;11.52;5.55;;;14.50;99.90;;;;;;10515004;28;20060;-55
2024/01/31 09:23:25;;;;;;;14.82;6.05;;;14.90;99.90;;;;;;10511378;28;20518;-59
2024/01/31 09:28:27;;;;;;;22.33;9.30;;;14.70;99.90;;;;;;10516086;28;20082;-56
2024/01/31 09:33:31;;;;;;;16.98;9.38;;;14.80;99.90;;;;;;10513802;28;20070;-53
2024/01/31 09:38:33;;;;;;;20.38;11.45;;;15.10;99.90;;;;;;10514817;28;20500;-56
2024/01/31 09:43:35;;;;;;;30.63;14.37;;;12.50;99.90;;;;;;10516765;28;20050;-57
2024/01/31 09:48:39;;;;;;;28.10;14.90;;;12.00;99.90;;;;;;10513340;28;23018;-54
2024/01/31 09:53:49;;;;;;;29.02;14.93;;;10.90;99.90;;;;;;10515933;28;20151;-55
2024/01/31 09:58:52;;;;;;;33.33;17.60;;;10.90;99.90;;;;;;10513689;28;20108;-56
2024/01/31 10:03:57;;;;;;;27.00;13.63;;;10.70;99.90;;;;;;10514761;28;20075;-58
2024/01/31 10:08:59;;;;;;;26.80;14.35;;;11.90;99.90;;;;;;10517184;28;20127;-57
2024/01/31 10:14:01;;;;;;;22.20;12.70;;;11.80;99.90;;;;;;10509990;28;20048;-58
2024/01/31 10:19:05;;;;;;;20.47;12.83;;;11.70;99.90;;;;;;10518984;28;20039;-57
2024/01/31 10:24:08;;;;;;;28.17;11.88;;;11.50;99.90;;;;;;10515106;28;20732;-58
2024/01/31 10:29:11;;;;;;;19.60;11.60;;;10.90;99.90;;;;;;10515376;28;20054;-57
2024/01/31 10:34:15;;;;;;;22.00;12.18;;;11.20;99.90;;;;;;10512321;27;20142;-56
2024/01/31 10:39:20;;;;;;;22.92;11.68;;;11.30;99.90;;;;;;10517126;28;20075;-55
2024/01/31 10:44:23;;;;;;;22.75;12.40;;;11.60;99.90;;;;;;10511265;28;20040;-56
2024/01/31 10:49:26;;;;;;;21.48;11.98;;;11.10;99.90;;;;;;10507861;28;20798;-55
2024/01/31 10:54:31;;;;;;;20.17;10.93;;;11.00;99.90;;;;;;10518829;28;20100;-55
2024/01/31 10:59:36;;;;;;;19.10;10.63;;;10.30;99.90;;;;;;10512197;28;20048;-59
2024/01/31 11:04:40;;;;;;;17.98;9.75;;;10.50;99.90;;;;;;10521567;28;20131;-57
2024/01/31 11:09:42;;;;;;;21.13;10.82;;;11.40;99.90;;;;;;10515671;28;20084;-57
2024/01/31 11:14:50;;;;;;;18.65;11.02;;;11.50;99.90;;;;;;10508223;28;20430;-57
2024/01/31 11:19:59;;;;;;;17.23;10.65;;;11.50;99.90;;;;;;10512716;28;20048;-54
2024/01/31 11:25:03;;;;;;;17.42;9.63;;;10.50;99.90;;;;;;10513061;28;20078;-57
2024/01/31 11:30:06;;;;;;;9.85;5.95;;;9.40;99.90;;;;;;10516801;28;20161;-59
2024/01/31 11:35:10;;;;;;;11.60;7.20;;;9.80;99.90;;;;;;10513398;28;20052;-55
2024/01/31 11:40:12;;;;;;;15.07;7.18;;;9.60;99.90;;;;;;10505804;28;20733;-57
2024/01/31 11:45:15;;;;;;;11.43;4.60;;;10.30;99.90;;;;;;10510398;28;20105;-56
2024/01/31 11:50:19;;;;;;;13.48;4.10;;;9.70;99.90;;;;;;10515837;28;20052;-57
2024/01/31 11:55:22;;;;;;;8.57;3.67;;;9.80;99.90;;;;;;10516272;28;20039;-56
2024/01/31 12:00:24;;;;;;;;;;;9.60;99.90;;;;;;10517254;28;20044;-55
2024/01/31 12:05:28;;;;;;;2.20;1.63;;;9.30;99.90;;;;;;10512435;28;19935;-55
2024/01/31 12:10:30;;;;;;;8.43;2.72;;;9.10;99.90;;;;;;10512719;28;20486;-58
2024/01/31 12:15:34;;;;;;;5.23;2.40;;;9.70;99.90;;;;;;10516883;28;20995;-53
2024/01/31 12:20:38;;;;;;;6.47;1.77;;;9.30;99.90;;;;;;10507260;28;20415;-57
2024/01/31 12:25:39;;;;;;;9.60;2.72;;;9.60;99.90;;;;;;10506408;28;20048;-56
2024/01/31 12:30:42;;;;;;;6.63;2.47;;;9.30;99.90;;;;;;10509367;28;20321;-57
2024/01/31 12:35:45;;;;;;;6.27;2.67;;;9.50;99.90;;;;;;10518578;28;20094;-57
2024/01/31 12:40:47;;;;;;;11.32;2.72;;;9.20;99.90;;;;;;10520301;28;20891;-57
2024/01/31 12:45:50;;;;;;;17.37;3.27;;;9.80;99.90;;;;;;10516965;28;20040;-57
2024/01/31 12:50:53;;;;;;;6.55;2.20;;;9.90;99.90;;;;;;10515301;28;20122;-57
2024/01/31 12:55:55;;;;;;;6.53;1.75;;;10.10;99.90;;;;;;10527282;28;20593;-55
2024/01/31 13:00:57;;;;;;;5.17;2.03;;;10.30;99.90;;;;;;10519626;28;20055;-57
2024/01/31 13:06:01;;;;;;;6.55;2.00;;;9.80;99.90;;;;;;10521376;28;20406;-62
2024/01/31 13:11:03;;;;;;;8.88;2.90;;;9.40;99.90;;;;;;10519832;28;20064;-57
2024/01/31 13:16:06;;;;;;;12.50;2.40;;;9.40;99.90;;;;;;10524208;28;20051;-56
2024/01/31 13:21:09;;;;;;;4.35;2.28;;;9.50;99.90;;;;;;10519880;28;20067;-58
2024/01/31 13:26:12;;;;;;;10.02;2.65;;;9.70;99.90;;;;;;10515748;28;20060;-55
2024/01/31 13:31:14;;;;;;;8.67;3.37;;;10.00;99.90;;;;;;10520035;28;20058;-56
2024/01/31 13:36:20;;;;;;;5.72;3.28;;;10.40;99.90;;;;;;10515244;28;20068;-57
2024/01/31 13:41:22;;;;;;;7.95;3.03;;;9.80;99.90;;;;;;10525841;28;20096;-57
2024/01/31 13:46:24;;;;;;;28.50;3.38;;;9.90;99.90;;;;;;10518271;28;20197;-57
2024/01/31 13:51:28;;;;;;;5.28;2.90;;;10.70;99.90;;;;;;10525683;28;20063;-57
2024/01/31 13:56:30;;;;;;;13.75;3.80;;;10.60;99.90;;;;;;10529865;28;20040;-56
2024/01/31 14:01:32;;;;;;;12.75;3.42;;;10.20;99.90;;;;;;10529605;28;20051;-57
2024/01/31 14:06:35;;;;;;;11.13;2.47;;;9.60;99.90;;;;;;10526790;28;20094;-58
2024/01/31 14:11:38;;;;;;;10.50;2.83;;;9.20;99.90;;;;;;10524910;28;20056;-58
2024/01/31 14:16:40;;;;;;;8.57;1.65;;;9.50;99.90;;;;;;10529264;28;20047;-57
2024/01/31 14:21:43;;;;;;;8.85;3.30;;;9.20;99.90;;;;;;10525742;28;20159;-58
2024/01/31 14:26:45;;;;;;;7.25;2.20;;;9.50;99.90;;;;;;10519308;27;20112;-58
2024/01/31 14:31:48;;;;;;;8.35;2.13;;;10.10;99.90;;;;;;10520475;28;20055;-57
2024/01/31 14:36:51;;;;;;;2.47;1.88;;;9.70;99.90;;;;;;10512170;28;20048;-55
2024/01/31 14:41:54;;;;;;;10.20;3.50;;;10.40;99.90;;;;;;10520896;28;20777;-58
2024/01/31 14:46:56;;;;;;;10.55;2.95;;;9.60;99.90;;;;;;10513032;28;20040;-57
2024/01/31 14:51:59;;;;;;;9.73;2.90;;;9.80;99.90;;;;;;10511967;28;20221;-56
2024/01/31 14:57:02;;;;;;;13.23;2.65;;;10.30;99.90;;;;;;10511738;28;20531;-57
2024/01/31 15:02:06;;;;;;;10.48;2.00;;;9.40;99.90;;;;;;10515107;28;20059;-56
2024/01/31 15:07:09;;;;;;;4.82;1.60;;;9.60;99.90;;;;;;10502543;28;20075;-58
2024/01/31 15:12:12;;;;;;;8.98;2.60;;;9.80;99.90;;;;;;10510755;28;20178;-55
2024/01/31 15:17:14;;;;;;;10.93;2.80;;;9.50;99.90;;;;;;10511415;28;20048;-56
2024/01/31 15:22:17;;;;;;;9.07;2.67;;;9.30;99.90;;;;;;10512390;28;20076;-56
2024/01/31 15:27:19;;;;;;;14.25;2.28;;;9.00;99.90;;;;;;10511427;28;20141;-56
2024/01/31 15:32:21;;;;;;;13.38;2.10;;;9.60;99.90;;;;;;10509334;28;20052;-58
2024/01/31 15:37:26;;;;;;;6.20;1.88;;;9.30;99.90;;;;;;10508648;28;20047;-59
2024/01/31 15:42:28;;;;;;;9.48;2.00;;;9.70;99.90;;;;;;10508170;28;20510;-57
2024/01/31 15:47:30;;;;;;;11.25;2.58;;;9.40;99.90;;;;;;10513280;28;20048;-57
2024/01/31 15:52:33;;;;;;;8.33;2.10;;;9.00;99.90;;;;;;10512401;28;20043;-55
2024/01/31 15:57:35;;;;;;;6.80;1.83;;;9.00;99.90;;;;;;10509618;28;20530;-58
2024/01/31 16:02:37;;;;;;;14.32;2.05;;;9.40;99.90;;;;;;10512344;28;20052;-57
2024/01/31 16:07:41;;;;;;;8.32;2.70;;;9.20;99.90;;;;;;10509293;28;20078;-57
2024/01/31 16:12:43;;;;;;;5.88;1.88;;;8.70;99.90;;;;;;10502740;28;20056;-58
2024/01/31 16:17:45;;;;;;;11.05;2.40;;;8.80;99.90;;;;;;10504680;28;20044;-58
2024/01/31 16:22:49;;;;;;;12.68;2.53;;;9.10;99.90;;;;;;10512855;28;20189;-58
2024/01/31 16:27:51;;;;;;;16.88;2.95;;;8.50;99.90;;;;;;10517177;28;20158;-57
2024/01/31 16:32:53;;;;;;;13.57;2.63;;;8.70;99.90;;;;;;10506398;28;20052;-54
2024/01/31 16:37:57;;;;;;;8.45;2.67;;;8.50;99.90;;;;;;10513820;28;20059;-55
2024/01/31 16:42:59;;;;;;;10.95;2.58;;;8.80;99.90;;;;;;10513466;28;20047;-59
2024/01/31 16:48:03;;;;;;;11.90;2.83;;;8.80;99.90;;;;;;10518838;28;20135;-56
2024/01/31 16:53:06;;;;;;;;;;;8.40;99.90;;;;;;10512426;28;20048;-58
2024/01/31 16:58:08;;;;;;;11.27;2.08;;;8.10;99.90;;;;;;10512463;28;19927;-55
2024/01/31 17:03:10;;;;;;;4.88;1.67;;;8.00;99.90;;;;;;10509706;28;20118;-54
2024/01/31 17:08:14;;;;;;;10.30;2.67;;;8.10;99.90;;;;;;10507607;28;20056;-58
2024/01/31 17:13:18;;;;;;;12.35;2.20;;;8.30;99.90;;;;;;10499601;28;20172;-57
2024/01/31 17:18:20;;;;;;;7.90;1.80;;;8.20;99.90;;;;;;10508450;28;20045;-57
2024/01/31 17:23:24;;;;;;;11.10;2.25;;;8.60;99.90;;;;;;10512188;28;20062;-57
2024/01/31 17:28:26;;;;;;;6.95;1.50;;;8.70;99.90;;;;;;10524154;28;20134;-57
2024/01/31 17:33:28;;;;;;;11.55;2.25;;;8.80;99.90;;;;;;10516546;28;20075;-57
2024/01/31 17:38:32;;;;;;;12.10;2.42;;;8.30;99.90;;;;;;10524272;28;20157;-57
2024/01/31 17:43:34;;;;;;;14.77;2.63;;;8.50;99.90;;;;;;10527467;28;20196;-56
2024/01/31 17:48:36;;;;;;;16.43;2.10;;;8.70;99.90;;;;;;10517662;28;20047;-57
2024/01/31 17:53:39;;;;;;;8.00;2.15;;;8.60;99.90;;;;;;10513845;28;20048;-58
2024/01/31 17:58:41;;;;;;;14.02;2.50;;;8.60;99.90;;;;;;10522440;28;20063;-58
2024/01/31 18:03:43;;;;;;;11.05;2.78;;;8.00;99.90;;;;;;10514958;28;20043;-56
2024/01/31 18:08:47;;;;;;;11.95;3.08;;;8.90;99.90;;;;;;10516260;28;20461;-59
2024/01/31 18:13:50;;;;;;;14.77;3.92;;;8.40;99.90;;;;;;10515084;28;20083;-58
2024/01/31 18:18:59;;;;;;;9.77;2.63;;;8.10;99.90;;;;;;10517366;28;20228;-57
2024/01/31 18:24:02;;;;;;;29.83;4.05;;;8.00;99.90;;;;;;10512877;28;20453;-58
2024/01/31 18:29:05;;;;;;;11.57;3.55;;;8.10;99.90;;;;;;10515967;28;20066;-57
2024/01/31 18:34:07;;;;;;;7.97;2.30;;;7.80;99.90;;;;;;10517745;28;20046;-55
2024/01/31 18:39:10;;;;;;;18.13;2.60;;;8.30;99.90;;;;;;10515886;28;20059;-60
2024/01/31 18:44:12;;;;;;;;;;;8.00;99.90;;;;;;10522478;28;20225;-58
2024/01/31 18:49:17;;;;;;;8.13;2.42;;;8.00;99.90;;;;;;10512407;28;20020;-58
2024/01/31 18:54:20;;;;;;;11.45;2.90;;;8.00;99.90;;;;;;10506619;28;20325;-57
2024/01/31 18:59:23;;;;;;;14.73;3.05;;;8.30;99.90;;;;;;10519858;28;20707;-56
2024/01/31 19:04:25;;;;;;;10.65;2.95;;;8.20;99.90;;;;;;10513069;28;20479;-56
2024/01/31 19:09:28;;;;;;;9.87;2.80;;;7.80;99.90;;;;;;10513217;28;20089;-57
2024/01/31 19:14:31;;;;;;;;;;;7.70;99.90;;;;;;10515063;28;20055;-57
2024/01/31 19:19:33;;;;;;;8.83;2.80;;;8.50;99.90;;;;;;10513172;28;19935;-55
2024/01/31 19:24:40;;;;;;;11.03;2.67;;;8.40;99.90;;;;;;10511834;28;20054;-56
2024/01/31 19:29:42;;;;;;;10.65;2.92;;;8.90;99.90;;;;;;10511320;28;20086;-57
2024/01/31 19:34:44;;;;;;;18.67;2.78;;;9.00;99.90;;;;;;10517550;28;20200;-57
2024/01/31 19:39:47;;;;;;;11.40;2.35;;;8.50;99.90;;;;;;10515088;28;21074;-57
2024/01/31 19:44:49;;;;;;;11.65;2.90;;;8.40;99.90;;;;;;10511344;28;20561;-59
2024/01/31 19:49:52;;;;;;;11.18;3.03;;;8.20;99.90;;;;;;10511617;28;20534;-55
2024/01/31 19:54:56;;;;;;;12.82;2.72;;;7.90;99.90;;;;;;10510284;28;20053;-59
2024/01/31 19:59:58;;;;;;;10.77;2.80;;;8.10;99.90;;;;;;10511160;28;20051;-57
2024/01/31 20:05:00;;;;;;;15.82;3.05;;;8.50;99.90;;;;;;10510761;28;20055;-57
2024/01/31 20:10:03;;;;;;;16.90;2.80;;;8.30;99.90;;;;;;10510338;28;20081;-58
2024/01/31 20:15:06;;;;;;;12.60;3.40;;;8.40;99.90;;;;;;10513857;28;20082;-57
2024/01/31 20:20:09;;;;;;;15.90;3.10;;;8.10;99.90;;;;;;10513029;28;20082;-57
2024/01/31 20:25:13;;;;;;;15.10;3.03;;;8.70;99.90;;;;;;10510321;28;20044;-55
2024/01/31 20:30:20;;;;;;;11.95;3.15;;;8.10;99.90;;;;;;10501390;28;20067;-56
2024/01/31 20:35:22;;;;;;;12.80;3.38;;;8.30;99.90;;;;;;10503498;28;20664;-59
2024/01/31 20:40:26;;;;;;;14.40;2.20;;;9.10;99.90;;;;;;10505101;28;20191;-59
2024/01/31 20:45:28;;;;;;;13.95;3.60;;;9.20;99.90;;;;;;10513280;28;20143;-58
2024/01/31 20:50:30;;;;;;;16.85;3.15;;;8.60;99.90;;;;;;10509344;28;20055;-56
2024/01/31 20:55:34;;;;;;;6.00;2.60;;;8.60;99.90;;;;;;10509894;28;20050;-58
2024/01/31 21:00:36;;;;;;;16.10;3.72;;;8.90;99.90;;;;;;10518712;28;20135;-58
2024/01/31 21:05:38;;;;;;;12.65;3.42;;;8.60;99.90;;;;;;10513399;28;20154;-56
2024/01/31 21:10:42;;;;;;;24.00;5.55;;;8.80;99.90;;;;;;10513049;28;20043;-55
2024/01/31 21:15:44;;;;;;;16.08;3.38;;;8.40;99.90;;;;;;10514730;28;20087;-57
2024/01/31 21:20:46;;;;;;;13.88;4.28;;;8.80;99.90;;;;;;10520465;28;20062;-55
2024/01/31 21:25:49;;;;;;;21.73;4.75;;;8.70;99.90;;;;;;10514916;28;20177;-58
2024/01/31 21:30:54;;;;;;;18.17;4.90;;;8.60;99.90;;;;;;10509831;28;20052;-57
2024/01/31 21:35:56;;;;;;;23.58;5.32;;;8.60;99.90;;;;;;10516222;28;20071;-57
2024/01/31 21:41:00;;;;;;;23.05;4.68;;;8.80;99.90;;;;;;10515155;28;20097;-55
2024/01/31 21:46:02;;;;;;;20.38;3.92;;;8.80;99.90;;;;;;10518574;28;20039;-55
2024/01/31 21:51:04;;;;;;;18.15;4.53;;;9.00;99.90;;;;;;10513704;28;20534;-58
2024/01/31 21:56:08;;;;;;;25.73;5.25;;;9.20;99.90;;;;;;10516171;28;20051;-56
2024/01/31 22:01:10;;;;;;;12.85;4.55;;;9.00;99.90;;;;;;10519914;28;20052;-57
2024/01/31 22:06:12;;;;;;;29.55;7.10;;;9.20;99.90;;;;;;10516287;27;20059;-56
2024/01/31 22:11:16;;;;;;;29.67;7.57;;;8.90;99.90;;;;;;10512764;28;20606;-56
2024/01/31 22:16:18;;;;;;;36.13;9.13;;;8.80;99.90;;;;;;10523510;28;20051;-55
2024/01/31 22:21:20;;;;;;;23.83;5.35;;;8.90;99.90;;;;;;10519944;28;20091;-58
2024/01/31 22:26:24;;;;;;;0.30;0.30;;;9.00;99.90;;;;;;10527583;28;20048;-58
2024/01/31 22:31:26;;;;;;;20.63;5.50;;;8.50;99.90;;;;;;10513824;28;20132;-58
2024/01/31 22:36:27;;;;;;;0.60;0.60;;;8.80;99.90;;;;;;10523028;28;20866;-57
2024/01/31 22:41:31;;;;;;;0.20;0.20;;;8.50;99.90;;;;;;10524510;28;20133;-57
2024/01/31 22:46:34;;;;;;;0.20;0.20;;;9.00;99.90;;;;;;10494725;28;20048;-58
2024/01/31 22:51:38;;;;;;;0.15;0.15;;;8.80;99.90;;;;;;10521476;28;20104;-58
2024/01/31 22:56:42;;;;;;;2.35;2.08;;;8.60;99.90;;;;;;10518962;28;20133;-58
2024/01/31 23:01:48;;;;;;;0.10;0.10;;;8.90;99.90;;;;;;10519219;28;20491;-57
2024/01/31 23:06:50;;;;;;;3.53;0.75;;;8.80;99.90;;;;;;10519199;28;20055;-57
2024/01/31 23:11:53;;;;;;;0.80;0.80;;;8.60;99.90;;;;;;10521420;28;20064;-57
2024/01/31 23:16:55;;;;;;;3.90;1.42;;;8.70;99.90;;;;;;10522273;28;20059;-54
2024/01/31 23:21:57;;;;;;;0.95;0.95;;;8.90;99.90;;;;;;10523407;28;20577;-56
2024/01/31 23:27:00;;;;;;;0.03;0.03;;;9.10;99.90;;;;;;10528936;28;20047;-58
2024/01/31 23:32:02;;;;;;;0.17;0.17;;;9.10;99.90;;;;;;10523595;28;20764;-57
2024/01/31 23:37:05;;;;;;;1.60;1.10;;;9.10;99.90;;;;;;10518990;28;20791;-58
2024/01/31 23:42:08;;;;;;;0.30;0.30;;;9.00;99.90;;;;;;10520960;28;20055;-58
2024/01/31 23:47:10;;;;;;;0.63;0.63;;;8.90;99.90;;;;;;10512979;28;20051;-59
2024/01/31 23:52:12;;;;;;;0.20;0.20;;;9.00;99.90;;;;;;10521189;28;20141;-56
2024/01/31 23:57:16;;;;;;;1.23;1.23;;;9.20;99.90;;;;;;10518314;28;20086;-57
